White Rock, Canada
Current Conditions -  °F | °C
As of 11:00 PM on Saturday 25 Oct 2014 (Local Time) from CYVR Reporting Station
Light Rain Light Rain  
Wind Chill: 40°   Ceiling: 1300
Heat Index: 48°   Visibility: 8mi
Dew Point: 46°   Wind: 30mph
Humidity: 93%   Direction: 280°W
Pressure: 29.5"   Gusts: 36mph
Location:  49.03°N, 122.82°W
Report Text: CYVR 260600Z 28026G31KT 8SM -RA SCT006 BKN013 OVC036 09/08 A2950 RMK SF3SC3NS2 PRESRR SLP990
Loading
Personal Weather Stations






























Interactive Weather Map
Tropical Storm Tracking
New forecast layout! Learn more

10-Day Weather Forecast

Advertisements
Track Severe Weather on mobile